sensor_id;sensor_type;location;lat;lon;timestamp;pressure;altitude;pressure_sealevel;temperature;humidity
44974;BME280;60981;50.720;11.342;2022-11-04T00:00:54;98301.50;;;9.50;100.00
44974;BME280;60981;50.720;11.342;2022-11-04T00:01:57;98300.66;;;9.48;100.00
44974;BME280;60981;50.720;11.342;2022-11-04T00:03:00;98298.16;;;9.45;100.00
44974;BME280;60981;50.720;11.342;2022-11-04T00:04:01;98299.78;;;9.51;100.00
44974;BME280;60981;50.720;11.342;2022-11-04T00:05:05;98300.56;;;9.56;100.00
44974;BME280;60981;50.720;11.342;2022-11-04T00:06:08;98302.38;;;9.48;100.00
44974;BME280;60981;50.720;11.342;2022-11-04T00:07:10;98293.75;;;9.52;100.00
44974;BME280;60981;50.720;11.342;2022-11-04T00:08:31;98296.31;;;9.53;100.00
44974;BME280;60981;50.720;11.342;2022-11-04T00:09:33;98295.41;;;9.56;100.00
44974;BME280;60981;50.720;11.342;2022-11-04T00:10:35;98290.25;;;9.60;100.00
44974;BME280;60981;50.720;11.342;2022-11-04T00:11:57;98294.53;;;9.60;100.00
44974;BME280;60981;50.720;11.342;2022-11-04T00:13:18;98288.38;;;9.70;100.00
44974;BME280;60981;50.720;11.342;2022-11-04T00:14:24;98291.91;;;9.63;100.00
44974;BME280;60981;50.720;11.342;2022-11-04T00:15:27;98290.25;;;9.60;100.00
44974;BME280;60981;50.720;11.342;2022-11-04T00:16:48;98286.84;;;9.57;100.00
44974;BME280;60981;50.720;11.342;2022-11-04T00:18:09;98288.84;;;9.35;100.00
44974;BME280;60981;50.720;11.342;2022-11-04T00:19:11;98291.47;;;9.32;100.00
44974;BME280;60981;50.720;11.342;2022-11-04T00:20:16;98287.09;;;9.37;100.00
44974;BME280;60981;50.720;11.342;2022-11-04T00:21:53;98289.66;;;9.39;100.00
44974;BME280;60981;50.720;11.342;2022-11-04T00:23:16;98281.09;;;9.38;100.00
44974;BME280;60981;50.720;11.342;2022-11-04T00:24:38;98282.75;;;9.44;100.00
44974;BME280;60981;50.720;11.342;2022-11-04T00:26:00;98295.56;;;9.47;100.00
44974;BME280;60981;50.720;11.342;2022-11-04T00:27:24;98287.78;;;9.51;100.00
44974;BME280;60981;50.720;11.342;2022-11-04T00:28:45;98285.22;;;9.51;100.00
44974;BME280;60981;50.720;11.342;2022-11-04T00:29:47;98285.22;;;9.50;100.00
44974;BME280;60981;50.720;11.342;2022-11-04T00:30:57;98283.41;;;9.56;100.00
44974;BME280;60981;50.720;11.342;2022-11-04T00:32:22;98286.03;;;9.53;100.00
44974;BME280;60981;50.720;11.342;2022-11-04T00:33:46;98287.91;;;9.41;100.00
44974;BME280;60981;50.720;11.342;2022-11-04T00:34:56;98291.22;;;9.50;100.00
44974;BME280;60981;50.720;11.342;2022-11-04T00:35:58;98284.34;;;9.51;100.00
44974;BME280;60981;50.720;11.342;2022-11-04T00:37:01;98283.50;;;9.50;100.00
44974;BME280;60981;50.720;11.342;2022-11-04T00:38:03;98285.97;;;9.56;100.00
44974;BME280;60981;50.720;11.342;2022-11-04T00:39:06;98283.34;;;9.62;100.00
44974;BME280;60981;50.720;11.342;2022-11-04T00:40:11;98287.56;;;9.67;100.00
44974;BME280;60981;50.720;11.342;2022-11-04T00:41:13;98280.66;;;9.70;100.00
44974;BME280;60981;50.720;11.342;2022-11-04T00:42:29;98275.44;;;9.75;100.00
44974;BME280;60981;50.720;11.342;2022-11-04T00:43:31;98276.31;;;9.77;100.00
44974;BME280;60981;50.720;11.342;2022-11-04T00:44:36;98276.22;;;9.81;100.00
44974;BME280;60981;50.720;11.342;2022-11-04T00:45:41;98277.91;;;9.82;100.00
44974;BME280;60981;50.720;11.342;2022-11-04T00:46:44;98279.59;;;9.85;100.00
44974;BME280;60981;50.720;11.342;2022-11-04T00:47:45;98277.78;;;9.90;100.00
44974;BME280;60981;50.720;11.342;2022-11-04T00:48:48;98278.63;;;9.90;100.00
44974;BME280;60981;50.720;11.342;2022-11-04T00:49:54;98278.63;;;9.92;100.00
44974;BME280;60981;50.720;11.342;2022-11-04T00:51:00;98276.03;;;9.92;100.00
44974;BME280;60981;50.720;11.342;2022-11-04T00:52:02;98285.47;;;9.91;100.00
44974;BME280;60981;50.720;11.342;2022-11-04T00:53:05;98274.34;;;9.92;100.00
44974;BME280;60981;50.720;11.342;2022-11-04T00:54:15;98277.91;;;9.82;100.00
44974;BME280;60981;50.720;11.342;2022-11-04T00:55:18;98279.56;;;9.86;100.00
44974;BME280;60981;50.720;11.342;2022-11-04T00:56:19;98273.56;;;9.86;100.00
44974;BME280;60981;50.720;11.342;2022-11-04T00:57:24;98278.66;;;9.89;100.00
44974;BME280;60981;50.720;11.342;2022-11-04T00:58:27;98273.56;;;9.86;100.00
44974;BME280;60981;50.720;11.342;2022-11-04T00:59:33;98276.19;;;9.83;100.00
44974;BME280;60981;50.720;11.342;2022-11-04T01:00:36;98274.41;;;9.88;100.00
44974;BME280;60981;50.720;11.342;2022-11-04T01:01:40;98277.78;;;9.90;100.00
44974;BME280;60981;50.720;11.342;2022-11-04T01:02:42;98277.03;;;9.85;100.00
44974;BME280;60981;50.720;11.342;2022-11-04T01:03:50;98277.94;;;9.81;100.00
44974;BME280;60981;50.720;11.342;2022-11-04T01:04:55;98281.38;;;9.80;100.00
44974;BME280;60981;50.720;11.342;2022-11-04T01:05:57;98283.03;;;9.84;100.00
44974;BME280;60981;50.720;11.342;2022-11-04T01:07:00;98282.09;;;9.88;100.00
44974;BME280;60981;50.720;11.342;2022-11-04T01:08:03;98287.19;;;9.91;100.00
44974;BME280;60981;50.720;11.342;2022-11-04T01:09:11;98289.78;;;9.91;100.00
44974;BME280;60981;50.720;11.342;2022-11-04T01:10:16;98286.31;;;9.95;100.00
44974;BME280;60981;50.720;11.342;2022-11-04T01:11:18;98287.97;;;9.98;100.00
44974;BME280;60981;50.720;11.342;2022-11-04T01:12:27;98292.28;;;9.97;100.00
44974;BME280;60981;50.720;11.342;2022-11-04T01:13:30;98290.59;;;9.95;100.00
44974;BME280;60981;50.720;11.342;2022-11-04T01:14:34;98293.16;;;9.95;100.00
44974;BME280;60981;50.720;11.342;2022-11-04T01:15:35;98295.66;;;9.99;100.00
44974;BME280;60981;50.720;11.342;2022-11-04T01:16:38;98305.19;;;9.92;100.00
44974;BME280;60981;50.720;11.342;2022-11-04T01:17:42;98300.88;;;9.95;100.00
44974;BME280;60981;50.720;11.342;2022-11-04T01:18:47;98306.88;;;9.95;100.00
44974;BME280;60981;50.720;11.342;2022-11-04T01:19:52;98301.91;;;9.83;100.00
44974;BME280;60981;50.720;11.342;2022-11-04T01:20:54;98302.81;;;9.79;100.00
44974;BME280;60981;50.720;11.342;2022-11-04T01:22:04;98302.88;;;9.73;100.00
44974;BME280;60981;50.720;11.342;2022-11-04T01:23:06;98298.66;;;9.70;100.00
44974;BME280;60981;50.720;11.342;2022-11-04T01:24:09;98303.09;;;9.60;100.00
44974;BME280;60981;50.720;11.342;2022-11-04T01:25:11;98297.97;;;9.57;100.00
44974;BME280;60981;50.720;11.342;2022-11-04T01:26:16;98292.97;;;9.47;100.00
44974;BME280;60981;50.720;11.342;2022-11-04T01:27:19;98293.84;;;9.46;100.00
44974;BME280;60981;50.720;11.342;2022-11-04T01:28:22;98298.16;;;9.45;100.00
44974;BME280;60981;50.720;11.342;2022-11-04T01:29:24;98297.28;;;9.43;100.00
44974;BME280;60981;50.720;11.342;2022-11-04T01:30:29;98293.81;;;9.49;100.00
44974;BME280;60981;50.720;11.342;2022-11-04T01:31:32;98304.91;;;9.51;100.00
44974;BME280;60981;50.720;11.342;2022-11-04T01:32:35;98292.09;;;9.49;100.00
44974;BME280;60981;50.720;11.342;2022-11-04T01:33:37;98301.59;;;9.44;100.00
44974;BME280;60981;50.720;11.342;2022-11-04T01:34:40;98293.91;;;9.41;100.00
44974;BME280;60981;50.720;11.342;2022-11-04T01:35:44;98298.16;;;9.42;100.00
44974;BME280;60981;50.720;11.342;2022-11-04T01:36:46;98299.00;;;9.43;100.00
44974;BME280;60981;50.720;11.342;2022-11-04T01:37:50;98299.88;;;9.42;100.00
44974;BME280;60981;50.720;11.342;2022-11-04T01:38:53;98297.31;;;9.42;100.00
44974;BME280;60981;50.720;11.342;2022-11-04T01:39:55;98303.38;;;9.36;100.00
44974;BME280;60981;50.720;11.342;2022-11-04T01:40:59;98301.66;;;9.38;100.00
44974;BME280;60981;50.720;11.342;2022-11-04T01:42:00;98296.47;;;9.40;100.00
44974;BME280;60981;50.720;11.342;2022-11-04T01:43:05;98295.66;;;9.38;100.00
44974;BME280;60981;50.720;11.342;2022-11-04T01:45:30;98304.22;;;9.37;100.00
44974;BME280;60981;50.720;11.342;2022-11-04T01:46:40;98309.28;;;9.44;100.00
44974;BME280;60981;50.720;11.342;2022-11-04T01:48:19;98298.09;;;9.48;100.00
44974;BME280;60981;50.720;11.342;2022-11-04T01:50:42;98309.09;;;9.56;100.00
44974;BME280;60981;50.720;11.342;2022-11-04T01:51:44;98309.94;;;9.60;100.00
44974;BME280;60981;50.720;11.342;2022-11-04T01:52:57;98308.22;;;9.60;100.00
44974;BME280;60981;50.720;11.342;2022-11-04T01:54:05;98310.69;;;9.67;100.00
44974;BME280;60981;50.720;11.342;2022-11-04T01:55:23;98305.47;;;9.73;100.00
44974;BME280;60981;50.720;11.342;2022-11-04T01:56:29;98303.72;;;9.76;100.00
44974;BME280;60981;50.720;11.342;2022-11-04T01:57:39;98301.97;;;9.78;100.00
44974;BME280;60981;50.720;11.342;2022-11-04T01:58:47;98309.63;;;9.83;100.00
44974;BME280;60981;50.720;11.342;2022-11-04T01:59:51;98309.50;;;9.90;100.00
44974;BME280;60981;50.720;11.342;2022-11-04T02:00:55;98295.69;;;9.98;100.00
44974;BME280;60981;50.720;11.342;2022-11-04T02:01:57;98299.00;;;10.04;100.00
44974;BME280;60981;50.720;11.342;2022-11-04T02:03:22;98300.47;;;10.20;100.00
44974;BME280;60981;50.720;11.342;2022-11-04T02:04:32;98296.84;;;10.34;100.00
44974;BME280;60981;50.720;11.342;2022-11-04T02:05:34;98289.56;;;10.60;100.00
44974;BME280;60981;50.720;11.342;2022-11-04T02:06:37;98287.59;;;10.74;100.00
44974;BME280;60981;50.720;11.342;2022-11-04T02:07:38;98292.47;;;10.87;100.00
44974;BME280;60981;50.720;11.342;2022-11-04T02:08:42;98279.38;;;10.99;100.00
44974;BME280;60981;50.720;11.342;2022-11-04T02:09:46;98274.84;;;11.11;100.00
44974;BME280;60981;50.720;11.342;2022-11-04T02:10:52;98271.19;;;11.23;100.00
44974;BME280;60981;50.720;11.342;2022-11-04T02:11:55;98270.06;;;11.35;100.00
44974;BME280;60981;50.720;11.342;2022-11-04T02:13:17;98265.44;;;11.51;100.00
44974;BME280;60981;50.720;11.342;2022-11-04T02:14:19;98262.66;;;11.60;100.00
44974;BME280;60981;50.720;11.342;2022-11-04T02:15:52;98253.81;;;11.71;100.00
44974;BME280;60981;50.720;11.342;2022-11-04T02:21:28;98258.22;;;12.05;100.00
44974;BME280;60981;50.720;11.342;2022-11-04T02:24:24;98281.63;;;11.96;100.00
44974;BME280;60981;50.720;11.342;2022-11-04T02:25:50;98296.06;;;12.03;100.00
44974;BME280;60981;50.720;11.342;2022-11-04T02:27:45;98297.72;;;12.07;100.00
44974;BME280;60981;50.720;11.342;2022-11-04T02:30:19;98298.41;;;12.14;100.00
44974;BME280;60981;50.720;11.342;2022-11-04T02:37:13;98294.88;;;12.18;100.00
44974;BME280;60981;50.720;11.342;2022-11-04T02:40:10;98285.22;;;12.26;100.00
44974;BME280;60981;50.720;11.342;2022-11-04T02:43:01;98288.47;;;12.32;100.00
44974;BME280;60981;50.720;11.342;2022-11-04T02:44:36;98291.66;;;12.44;100.00
44974;BME280;60981;50.720;11.342;2022-11-04T02:45:44;98296.09;;;12.39;100.00
44974;BME280;60981;50.720;11.342;2022-11-04T02:47:13;98294.41;;;12.38;100.00
44974;BME280;60981;50.720;11.342;2022-11-04T02:49:37;98289.19;;;12.39;100.00
44974;BME280;60981;50.720;11.342;2022-11-04T02:52:39;98291.66;;;12.44;100.00
44974;BME280;60981;50.720;11.342;2022-11-04T02:53:51;98292.41;;;12.47;100.00
44974;BME280;60981;50.720;11.342;2022-11-04T02:55:10;98288.19;;;12.45;100.00
44974;BME280;60981;50.720;11.342;2022-11-04T02:56:14;98290.50;;;12.55;100.00
44974;BME280;60981;50.720;11.342;2022-11-04T02:57:25;98288.59;;;12.62;100.00
44974;BME280;60981;50.720;11.342;2022-11-04T02:58:34;98292.78;;;12.66;100.00
44974;BME280;60981;50.720;11.342;2022-11-04T02:59:57;98300.84;;;12.55;100.00
44974;BME280;60981;50.720;11.342;2022-11-04T03:01:01;98293.69;;;12.65;100.00
44974;BME280;60981;50.720;11.342;2022-11-04T03:02:14;98301.25;;;12.73;100.00
44974;BME280;60981;50.720;11.342;2022-11-04T03:03:23;98293.38;;;12.77;100.00
44974;BME280;60981;50.720;11.342;2022-11-04T03:04:31;98304.47;;;12.81;100.00
44974;BME280;60981;50.720;11.342;2022-11-04T03:05:36;98304.38;;;12.84;100.00
44974;BME280;60981;50.720;11.342;2022-11-04T03:06:43;98309.53;;;12.85;100.00
44974;BME280;60981;50.720;11.342;2022-11-04T03:07:50;98312.91;;;12.87;100.00
44974;BME280;60981;50.720;11.342;2022-11-04T03:08:54;98323.19;;;12.89;100.00
44974;BME280;60981;50.720;11.342;2022-11-04T03:10:00;98332.69;;;12.88;100.00
44974;BME280;60981;50.720;11.342;2022-11-04T03:11:07;98333.50;;;12.90;100.00
44974;BME280;60981;50.720;11.342;2022-11-04T03:12:16;98329.22;;;12.89;100.00
44974;BME280;60981;50.720;11.342;2022-11-04T03:13:43;98325.69;;;12.92;100.00
44974;BME280;60981;50.720;11.342;2022-11-04T03:14:53;98326.91;;;12.79;100.00
44974;BME280;60981;50.720;11.342;2022-11-04T03:16:05;98331.84;;;12.88;100.00
44974;BME280;60981;50.720;11.342;2022-11-04T03:18:05;98336.25;;;12.83;100.00
44974;BME280;60981;50.720;11.342;2022-11-04T03:19:12;98341.38;;;12.86;100.00
44974;BME280;60981;50.720;11.342;2022-11-04T03:20:20;98338.69;;;12.89;100.00
44974;BME280;60981;50.720;11.342;2022-11-04T03:21:27;98344.72;;;12.89;100.00
44974;BME280;60981;50.720;11.342;2022-11-04T03:22:34;98340.34;;;12.91;100.00
44974;BME280;60981;50.720;11.342;2022-11-04T03:23:39;98349.94;;;12.88;100.00
44974;BME280;60981;50.720;11.342;2022-11-04T03:24:46;98363.66;;;12.90;100.00
44974;BME280;60981;50.720;11.342;2022-11-04T03:25:50;98360.09;;;12.94;100.00
44974;BME280;60981;50.720;11.342;2022-11-04T03:27:00;98358.22;;;12.99;100.00
44974;BME280;60981;50.720;11.342;2022-11-04T03:28:45;98360.75;;;13.01;100.00
44974;BME280;60981;50.720;11.342;2022-11-04T03:30:00;98359.03;;;13.01;100.00
44974;BME280;60981;50.720;11.342;2022-11-04T03:31:14;98356.53;;;12.98;100.00
44974;BME280;60981;50.720;11.342;2022-11-04T03:33:50;98358.97;;;13.04;100.00
44974;BME280;60981;50.720;11.342;2022-11-04T03:34:55;98359.78;;;13.06;100.00
44974;BME280;60981;50.720;11.342;2022-11-04T03:35:56;98351.13;;;13.07;100.00
44974;BME280;60981;50.720;11.342;2022-11-04T03:36:59;98351.97;;;13.08;100.00
44974;BME280;60981;50.720;11.342;2022-11-04T03:38:01;98358.84;;;13.09;100.00
44974;BME280;60981;50.720;11.342;2022-11-04T03:39:03;98350.38;;;13.04;100.00
44974;BME280;60981;50.720;11.342;2022-11-04T03:40:07;98353.97;;;12.97;100.00
44974;BME280;60981;50.720;11.342;2022-11-04T03:41:25;98354.72;;;13.02;100.00
44974;BME280;60981;50.720;11.342;2022-11-04T03:42:37;98355.53;;;13.04;100.00
44974;BME280;60981;50.720;11.342;2022-11-04T03:43:40;98355.50;;;13.05;100.00
44974;BME280;60981;50.720;11.342;2022-11-04T03:44:43;98359.78;;;13.06;100.00
44974;BME280;60981;50.720;11.342;2022-11-04T03:45:47;98355.53;;;13.04;100.00
44974;BME280;60981;50.720;11.342;2022-11-04T03:46:53;98351.31;;;13.00;100.00
44974;BME280;60981;50.720;11.342;2022-11-04T03:47:55;98349.63;;;12.99;100.00
44974;BME280;60981;50.720;11.342;2022-11-04T03:48:59;98353.84;;;13.01;100.00
44974;BME280;60981;50.720;11.342;2022-11-04T03:50:07;98351.28;;;13.01;100.00
44974;BME280;60981;50.720;11.342;2022-11-04T03:51:10;98346.19;;;12.98;100.00
44974;BME280;60981;50.720;11.342;2022-11-04T03:52:15;98341.19;;;12.92;100.00
44974;BME280;60981;50.720;11.342;2022-11-04T03:53:25;98339.41;;;12.94;100.00
44974;BME280;60981;50.720;11.342;2022-11-04T03:54:31;98339.59;;;12.88;100.00
44974;BME280;60981;50.720;11.342;2022-11-04T03:56:22;98336.22;;;12.84;100.00
44974;BME280;60981;50.720;11.342;2022-11-04T03:59:18;98333.44;;;12.92;100.00
44974;BME280;60981;50.720;11.342;2022-11-04T04:00:28;98334.25;;;12.94;100.00
44974;BME280;60981;50.720;11.342;2022-11-04T04:04:40;98343.50;;;13.03;100.00
44974;BME280;60981;50.720;11.342;2022-11-04T04:05:54;98351.22;;;13.04;100.00
44974;BME280;60981;50.720;11.342;2022-11-04T04:07:04;98353.75;;;13.06;100.00
44974;BME280;60981;50.720;11.342;2022-11-04T04:09:49;98370.91;;;13.08;100.00
44974;BME280;60981;50.720;11.342;2022-11-04T04:12:39;98368.31;;;13.08;100.00
44974;BME280;60981;50.720;11.342;2022-11-04T04:14:04;98366.63;;;13.07;100.00
44974;BME280;60981;50.720;11.342;2022-11-04T04:15:20;98369.25;;;13.06;100.00
44974;BME280;60981;50.720;11.342;2022-11-04T04:16:36;98364.94;;;13.06;100.00
44974;BME280;60981;50.720;11.342;2022-11-04T04:18:05;98360.63;;;13.07;100.00
44974;BME280;60981;50.720;11.342;2022-11-04T04:19:19;98371.81;;;13.07;100.00
44974;BME280;60981;50.720;11.342;2022-11-04T04:20:28;98370.09;;;13.06;100.00
44974;BME280;60981;50.720;11.342;2022-11-04T04:21:55;98368.41;;;13.05;100.00
44974;BME280;60981;50.720;11.342;2022-11-04T04:23:06;98369.31;;;13.04;100.00
44974;BME280;60981;50.720;11.342;2022-11-04T04:24:39;98373.75;;;12.98;100.00
44974;BME280;60981;50.720;11.342;2022-11-04T04:26:04;98377.28;;;12.95;100.00
44974;BME280;60981;50.720;11.342;2022-11-04T04:27:29;98370.53;;;12.89;100.00
44974;BME280;60981;50.720;11.342;2022-11-04T04:28:33;98375.72;;;12.89;100.00
44974;BME280;60981;50.720;11.342;2022-11-04T04:29:37;98375.59;;;12.94;100.00
44974;BME280;60981;50.720;11.342;2022-11-04T04:30:40;98375.72;;;12.89;100.00
44974;BME280;60981;50.720;11.342;2022-11-04T04:31:53;98376.56;;;12.90;100.00
44974;BME280;60981;50.720;11.342;2022-11-04T04:33:05;98383.63;;;12.82;100.00
44974;BME280;60981;50.720;11.342;2022-11-04T04:34:09;98385.47;;;12.78;100.00
44974;BME280;60981;50.720;11.342;2022-11-04T04:35:15;98385.41;;;12.80;100.00
44974;BME280;60981;50.720;11.342;2022-11-04T04:36:44;98389.00;;;12.74;100.00
44974;BME280;60981;50.720;11.342;2022-11-04T04:37:48;98387.19;;;12.78;100.00
44974;BME280;60981;50.720;11.342;2022-11-04T04:38:53;98388.81;;;12.82;100.00
44974;BME280;60981;50.720;11.342;2022-11-04T04:40:30;98387.28;;;12.75;100.00
44974;BME280;60981;50.720;11.342;2022-11-04T04:41:53;98386.50;;;12.71;100.00
44974;BME280;60981;50.720;11.342;2022-11-04T04:43:15;98378.81;;;12.70;100.00
44974;BME280;60981;50.720;11.342;2022-11-04T04:44:40;98383.75;;;12.77;100.00
44974;BME280;60981;50.720;11.342;2022-11-04T04:46:02;98374.38;;;12.75;100.00
44974;BME280;60981;50.720;11.342;2022-11-04T04:47:08;98377.88;;;12.72;100.00
44974;BME280;60981;50.720;11.342;2022-11-04T04:48:11;98369.31;;;12.69;100.00
44974;BME280;60981;50.720;11.342;2022-11-04T04:49:14;98372.75;;;12.71;100.00
44974;BME280;60981;50.720;11.342;2022-11-04T04:50:19;98366.75;;;12.70;100.00
44974;BME280;60981;50.720;11.342;2022-11-04T04:51:23;98373.47;;;12.76;100.00
44974;BME280;60981;50.720;11.342;2022-11-04T04:52:29;98370.88;;;12.76;100.00
44974;BME280;60981;50.720;11.342;2022-11-04T04:53:31;98375.16;;;12.77;100.00
44974;BME280;60981;50.720;11.342;2022-11-04T04:54:33;98383.13;;;12.68;100.00
44974;BME280;60981;50.720;11.342;2022-11-04T04:55:35;98378.81;;;12.70;100.00
44974;BME280;60981;50.720;11.342;2022-11-04T04:56:43;98387.34;;;12.72;100.00
44974;BME280;60981;50.720;11.342;2022-11-04T04:57:45;98386.31;;;12.79;100.00
44974;BME280;60981;50.720;11.342;2022-11-04T04:58:47;98391.44;;;12.80;100.00
44974;BME280;60981;50.720;11.342;2022-11-04T04:59:50;98386.22;;;12.82;100.00
44974;BME280;60981;50.720;11.342;2022-11-04T05:00:53;98391.38;;;12.82;100.00
44974;BME280;60981;50.720;11.342;2022-11-04T05:01:55;98398.19;;;12.86;100.00
44974;BME280;60981;50.720;11.342;2022-11-04T05:03:00;98399.03;;;12.86;100.00
44974;BME280;60981;50.720;11.342;2022-11-04T05:04:02;98398.19;;;12.86;100.00
44974;BME280;60981;50.720;11.342;2022-11-04T05:05:04;98392.19;;;12.84;100.00
44974;BME280;60981;50.720;11.342;2022-11-04T05:06:07;98404.25;;;12.83;100.00
44974;BME280;60981;50.720;11.342;2022-11-04T05:07:11;98399.06;;;12.85;100.00
44974;BME280;60981;50.720;11.342;2022-11-04T05:08:14;98397.34;;;12.84;100.00
44974;BME280;60981;50.720;11.342;2022-11-04T05:09:18;98406.81;;;12.85;100.00
44974;BME280;60981;50.720;11.342;2022-11-04T05:10:19;98405.09;;;12.84;100.00
44974;BME280;60981;50.720;11.342;2022-11-04T05:11:22;98400.16;;;12.76;100.00
44974;BME280;60981;50.720;11.342;2022-11-04T05:12:27;98405.31;;;12.76;100.00
44974;BME280;60981;50.720;11.342;2022-11-04T05:13:53;98410.34;;;12.81;100.00
44974;BME280;60981;50.720;11.342;2022-11-04T05:14:57;98406.88;;;12.82;100.00
44974;BME280;60981;50.720;11.342;2022-11-04T05:16:09;98404.50;;;12.74;100.00
44974;BME280;60981;50.720;11.342;2022-11-04T05:17:11;98412.34;;;12.71;100.00
44974;BME280;60981;50.720;11.342;2022-11-04T05:18:14;98406.16;;;12.77;100.00
44974;BME280;60981;50.720;11.342;2022-11-04T05:19:16;98409.63;;;12.76;100.00
44974;BME280;60981;50.720;11.342;2022-11-04T05:20:20;98411.38;;;12.75;100.00
44974;BME280;60981;50.720;11.342;2022-11-04T05:21:23;98404.50;;;12.74;100.00
44974;BME280;60981;50.720;11.342;2022-11-04T05:22:25;98406.31;;;12.71;100.00
44974;BME280;60981;50.720;11.342;2022-11-04T05:23:30;98413.13;;;12.73;100.00
44974;BME280;60981;50.720;11.342;2022-11-04T05:24:32;98419.28;;;12.69;100.00
44974;BME280;60981;50.720;11.342;2022-11-04T05:25:35;98414.94;;;12.70;100.00
44974;BME280;60981;50.720;11.342;2022-11-04T05:26:37;98420.94;;;12.72;100.00
44974;BME280;60981;50.720;11.342;2022-11-04T05:27:39;98427.25;;;12.58;100.00
44974;BME280;60981;50.720;11.342;2022-11-04T05:28:42;98427.50;;;12.48;100.00
44974;BME280;60981;50.720;11.342;2022-11-04T05:29:44;98434.63;;;12.38;100.00
44974;BME280;60981;50.720;11.342;2022-11-04T05:30:47;98436.34;;;12.36;100.00
44974;BME280;60981;50.720;11.342;2022-11-04T05:31:49;98434.69;;;12.33;100.00
44974;BME280;60981;50.720;11.342;2022-11-04T05:32:52;98439.81;;;12.35;100.00
44974;BME280;60981;50.720;11.342;2022-11-04T05:33:55;98439.94;;;12.30;100.00
44974;BME280;60981;50.720;11.342;2022-11-04T05:34:56;98448.66;;;12.25;100.00
44974;BME280;60981;50.720;11.342;2022-11-04T05:36:13;98441.94;;;12.18;100.00
44974;BME280;60981;50.720;11.342;2022-11-04T05:37:16;98441.06;;;12.17;100.00
44974;BME280;60981;50.720;11.342;2022-11-04T05:38:18;98443.50;;;12.25;100.00
44974;BME280;60981;50.720;11.342;2022-11-04T05:39:23;98441.84;;;12.22;100.00
44974;BME280;60981;50.720;11.342;2022-11-04T05:40:25;98447.78;;;12.26;100.00
44974;BME280;60981;50.720;11.342;2022-11-04T05:41:31;98445.31;;;12.21;100.00
44974;BME280;60981;50.720;11.342;2022-11-04T05:42:35;98447.91;;;12.20;100.00
44974;BME280;60981;50.720;11.342;2022-11-04T05:43:37;98445.53;;;12.11;100.00
44974;BME280;60981;50.720;11.342;2022-11-04T05:44:39;98447.31;;;12.09;100.00
44974;BME280;60981;50.720;11.342;2022-11-04T05:45:41;98447.34;;;12.07;100.00
44974;BME280;60981;50.720;11.342;2022-11-04T05:46:43;98446.28;;;12.16;100.00
44974;BME280;60981;50.720;11.342;2022-11-04T05:47:45;98447.91;;;12.20;100.00
44974;BME280;60981;50.720;11.342;2022-11-04T05:48:47;98448.78;;;12.19;100.00
44974;BME280;60981;50.720;11.342;2022-11-04T05:49:57;98441.19;;;12.13;100.00
44974;BME280;60981;50.720;11.342;2022-11-04T05:51:00;98442.09;;;12.10;100.00
44974;BME280;60981;50.720;11.342;2022-11-04T05:52:04;98442.13;;;12.09;100.00
44974;BME280;60981;50.720;11.342;2022-11-04T05:53:06;98433.59;;;12.07;100.00
44974;BME280;60981;50.720;11.342;2022-11-04T05:54:10;98437.09;;;12.04;100.00
44974;BME280;60981;50.720;11.342;2022-11-04T05:55:14;98441.25;;;12.10;100.00
44974;BME280;60981;50.720;11.342;2022-11-04T05:56:16;98442.09;;;12.10;100.00
44974;BME280;60981;50.720;11.342;2022-11-04T05:57:21;98442.19;;;12.07;100.00
44974;BME280;60981;50.720;11.342;2022-11-04T05:58:23;98448.25;;;12.05;100.00
44974;BME280;60981;50.720;11.342;2022-11-04T05:59:25;98438.78;;;12.05;100.00
44974;BME280;60981;50.720;11.342;2022-11-04T06:00:30;98446.41;;;12.10;100.00
44974;BME280;60981;50.720;11.342;2022-11-04T06:01:37;98445.47;;;12.14;100.00
44974;BME280;60981;50.720;11.342;2022-11-04T06:02:39;98436.94;;;12.10;100.00
44974;BME280;60981;50.720;11.342;2022-11-04T06:03:42;98441.13;;;12.16;100.00
44974;BME280;60981;50.720;11.342;2022-11-04T06:04:47;98435.88;;;12.19;100.00
44974;BME280;60981;50.720;11.342;2022-11-04T06:05:49;98441.78;;;12.25;100.00
44974;BME280;60981;50.720;11.342;2022-11-04T06:06:51;98432.22;;;12.29;100.00
44974;BME280;60981;50.720;11.342;2022-11-04T06:07:55;98428.75;;;12.30;100.00
44974;BME280;60981;50.720;11.342;2022-11-04T06:08:58;98427.88;;;12.31;100.00
44974;BME280;60981;50.720;11.342;2022-11-04T06:10:00;98426.16;;;12.31;100.00
44974;BME280;60981;50.720;11.342;2022-11-04T06:11:05;98420.09;;;12.32;100.00
44974;BME280;60981;50.720;11.342;2022-11-04T06:12:10;98420.94;;;12.33;100.00
44974;BME280;60981;50.720;11.342;2022-11-04T06:13:15;98423.53;;;12.33;100.00
44974;BME280;60981;50.720;11.342;2022-11-04T06:14:19;98424.38;;;12.33;100.00
44974;BME280;60981;50.720;11.342;2022-11-04T06:15:22;98416.75;;;12.29;100.00
44974;BME280;60981;50.720;11.342;2022-11-04T06:16:24;98438.19;;;12.31;100.00
44974;BME280;60981;50.720;11.342;2022-11-04T06:17:27;98437.31;;;12.32;100.00
44974;BME280;60981;50.720;11.342;2022-11-04T06:18:29;98437.28;;;12.33;100.00
44974;BME280;60981;50.720;11.342;2022-11-04T06:19:31;98432.09;;;12.35;100.00
44974;BME280;60981;50.720;11.342;2022-11-04T06:20:34;98428.63;;;12.36;100.00
44974;BME280;60981;50.720;11.342;2022-11-04T06:21:36;98437.19;;;12.38;100.00
44974;BME280;60981;50.720;11.342;2022-11-04T06:22:39;98433.06;;;12.29;100.00
44974;BME280;60981;50.720;11.342;2022-11-04T06:23:44;98433.28;;;12.20;100.00
44974;BME280;60981;50.720;11.342;2022-11-04T06:24:45;98437.66;;;12.17;100.00